Time;durP1;ratioP1;P1;durP2;ratioP2;P2;SDS_P1;SDS_P2;PMS_P1;PMS_P2;Temp;Humidity;BMP_temperature;BMP_pressure;BME280_temperature;BME280_humidity;BME280_pressure;Samples;Min_cycle;Max_cycle;Signal;HPM_P1;HPM_P2
2023/12/27 00:02:10;;;;;;;6.63;3.20;;;;;;;;;;5049745;28;20448;-67
2023/12/27 00:04:37;;;;;;;4.90;2.43;;;;;;;;;;5051282;28;20583;-67
2023/12/27 00:07:03;;;;;;;6.17;3.10;;;;;;;;;;5049353;28;20895;-71
2023/12/27 00:09:29;;;;;;;3.67;2.13;;;;;;;;;;5049652;28;20469;-72
2023/12/27 00:11:57;;;;;;;8.97;2.33;;;;;;;;;;5054571;28;20452;-69
2023/12/27 00:14:24;;;;;;;4.30;2.70;;;;;;;;;;5053271;28;20449;-70
2023/12/27 00:16:50;;;;;;;6.90;2.97;;;;;;;;;;5053986;28;20444;-72
2023/12/27 00:19:20;;;;;;;9.63;3.27;;;;;;;;;;5052877;28;20568;-67
2023/12/27 00:21:46;;;;;;;4.80;2.57;;;;;;;;;;5054370;28;20456;-68
2023/12/27 00:24:13;;;;;;;9.50;2.80;;;;;;;;;;5048789;28;20505;-68
2023/12/27 00:26:39;;;;;;;4.60;2.80;;;;;;;;;;5053094;28;20484;-68
2023/12/27 00:29:07;;;;;;;14.40;2.73;;;;;;;;;;5049276;28;20967;-68
2023/12/27 00:31:33;;;;;;;8.60;3.00;;;;;;;;;;5052560;28;20468;-68
2023/12/27 00:33:59;;;;;;;5.50;3.00;;;;;;;;;;5054294;28;20564;-69
2023/12/27 00:36:29;;;;;;;5.83;3.20;;;;;;;;;;5055911;28;20487;-69
2023/12/27 00:38:55;;;;;;;10.13;4.67;;;;;;;;;;5055458;28;20875;-71
2023/12/27 00:41:22;;;;;;;13.40;3.00;;;;;;;;;;5050179;28;20484;-71
2023/12/27 00:43:48;;;;;;;5.10;3.73;;;;;;;;;;5051426;28;20540;-71
2023/12/27 00:46:16;;;;;;;3.37;2.90;;;;;;;;;;5051958;28;20551;-68
2023/12/27 00:48:42;;;;;;;6.10;3.00;;;;;;;;;;5052433;28;20538;-67
2023/12/27 00:51:17;;;;;;;12.10;2.63;;;;;;;;;;5051375;28;20490;-69
2023/12/27 00:53:43;;;;;;;3.37;2.70;;;;;;;;;;5053313;28;21003;-68
2023/12/27 00:56:10;;;;;;;10.63;3.17;;;;;;;;;;5049730;28;20491;-68
2023/12/27 00:58:36;;;;;;;5.17;3.00;;;;;;;;;;5054049;28;20542;-69
2023/12/27 01:01:02;;;;;;;5.87;3.03;;;;;;;;;;5048815;28;20904;-71
2023/12/27 01:03:30;;;;;;;4.70;3.03;;;;;;;;;;5048660;28;20513;-71
2023/12/27 01:05:57;;;;;;;3.87;2.87;;;;;;;;;;5052476;28;20619;-70
2023/12/27 01:08:23;;;;;;;4.43;2.57;;;;;;;;;;5051399;28;20517;-70
2023/12/27 01:10:50;;;;;;;6.10;2.83;;;;;;;;;;5050360;28;20512;-70
2023/12/27 01:13:16;;;;;;;4.60;2.93;;;;;;;;;;5053214;28;20476;-70
2023/12/27 01:15:42;;;;;;;6.20;3.03;;;;;;;;;;5051438;28;21032;-70
2023/12/27 01:18:09;;;;;;;4.63;3.10;;;;;;;;;;5047795;28;20513;-70
2023/12/27 01:20:37;;;;;;;10.63;3.50;;;;;;;;;;5053789;28;20466;-69
2023/12/27 01:23:04;;;;;;;13.37;3.57;;;;;;;;;;5054684;28;20988;-70
2023/12/27 01:25:30;;;;;;;10.30;3.10;;;;;;;;;;5046010;28;20527;-70
2023/12/27 01:27:56;;;;;;;5.93;3.17;;;;;;;;;;5053214;28;20461;-70
2023/12/27 01:30:23;;;;;;;5.07;3.00;;;;;;;;;;5049434;28;20473;-71
2023/12/27 01:32:49;;;;;;;4.97;3.23;;;;;;;;;;5048812;28;20458;-70
2023/12/27 01:35:16;;;;;;;10.40;5.53;;;;;;;;;;5050774;28;20838;-70
2023/12/27 01:37:44;;;;;;;7.10;4.60;;;;;;;;;;5047258;28;20449;-70
2023/12/27 01:40:11;;;;;;;8.53;5.30;;;;;;;;;;5053619;28;20568;-70
2023/12/27 01:42:38;;;;;;;7.00;4.20;;;;;;;;;;5050121;28;21182;-71
2023/12/27 01:45:06;;;;;;;10.33;5.37;;;;;;;;;;5047314;28;20488;-70
2023/12/27 01:47:33;;;;;;;8.27;5.17;;;;;;;;;;5052699;28;20517;-70
2023/12/27 01:49:59;;;;;;;7.73;5.40;;;;;;;;;;5051540;28;20457;-71
2023/12/27 01:52:26;;;;;;;5.93;4.80;;;;;;;;;;5054100;28;20516;-70
2023/12/27 01:54:54;;;;;;;7.80;3.53;;;;;;;;;;5055258;28;21110;-70
2023/12/27 01:57:20;;;;;;;4.77;4.30;;;;;;;;;;5059050;28;20528;-69
2023/12/27 01:59:47;;;;;;;5.83;4.00;;;;;;;;;;5049461;28;20476;-70
2023/12/27 02:02:13;;;;;;;11.97;4.10;;;;;;;;;;5049209;28;20529;-70
2023/12/27 02:04:40;;;;;;;7.07;4.07;;;;;;;;;;5052629;28;20494;-70
2023/12/27 02:07:06;;;;;;;7.00;3.57;;;;;;;;;;5076500;28;20613;-70
2023/12/27 02:09:33;;;;;;;10.10;4.30;;;;;;;;;;5077681;28;20527;-70
2023/12/27 02:12:01;;;;;;;5.63;3.70;;;;;;;;;;5078445;28;20476;-69
2023/12/27 02:14:27;;;;;;;7.07;3.80;;;;;;;;;;5076790;28;20547;-70
2023/12/27 02:16:54;;;;;;;9.87;3.63;;;;;;;;;;5076911;28;20527;-70
2023/12/27 02:19:21;;;;;;;7.17;3.30;;;;;;;;;;5075780;28;20472;-71
2023/12/27 02:21:48;;;;;;;6.17;3.70;;;;;;;;;;5078309;28;20456;-70
2023/12/27 02:24:15;;;;;;;7.63;3.60;;;;;;;;;;5075241;28;20512;-70
2023/12/27 02:26:43;;;;;;;6.80;3.53;;;;;;;;;;5071962;28;20498;-70
2023/12/27 02:29:09;;;;;;;9.63;4.43;;;;;;;;;;5073257;28;20451;-69
2023/12/27 02:31:36;;;;;;;5.63;4.07;;;;;;;;;;5074948;28;20480;-70
2023/12/27 02:34:02;;;;;;;6.40;4.20;;;;;;;;;;5075085;28;20465;-69
2023/12/27 02:36:29;;;;;;;9.73;4.40;;;;;;;;;;5076975;28;20479;-69
2023/12/27 02:38:55;;;;;;;8.83;5.10;;;;;;;;;;5073315;28;20504;-70
2023/12/27 02:41:22;;;;;;;17.80;8.63;;;;;;;;;;5069494;28;20551;-70
2023/12/27 02:43:50;;;;;;;14.73;6.30;;;;;;;;;;5073822;28;20542;-70
2023/12/27 02:46:16;;;;;;;9.10;4.93;;;;;;;;;;5069830;28;20569;-70
2023/12/27 02:48:43;;;;;;;9.20;4.97;;;;;;;;;;5071342;28;20480;-71
2023/12/27 02:51:09;;;;;;;12.60;6.40;;;;;;;;;;5076512;28;21027;-71
2023/12/27 02:53:35;;;;;;;10.67;5.60;;;;;;;;;;5070278;28;20483;-70
2023/12/27 02:56:02;;;;;;;6.90;4.17;;;;;;;;;;5071774;28;20484;-70
2023/12/27 02:58:28;;;;;;;12.50;4.80;;;;;;;;;;5075123;28;20527;-71
2023/12/27 03:00:56;;;;;;;10.23;5.33;;;;;;;;;;5071201;28;20470;-71
2023/12/27 03:03:22;;;;;;;10.40;5.10;;;;;;;;;;5077837;28;20523;-71
2023/12/27 03:05:49;;;;;;;9.80;5.27;;;;;;;;;;5068732;28;20559;-71
2023/12/27 03:08:15;;;;;;;7.90;5.13;;;;;;;;;;5049513;28;20659;-70
2023/12/27 03:10:42;;;;;;;12.43;5.40;;;;;;;;;;5056864;28;20480;-70
2023/12/27 03:13:08;;;;;;;7.53;4.97;;;;;;;;;;5053942;28;20473;-71
2023/12/27 03:15:35;;;;;;;8.63;4.30;;;;;;;;;;5055115;28;20489;-71
2023/12/27 03:18:02;;;;;;;11.90;4.37;;;;;;;;;;5057132;28;20508;-70
2023/12/27 03:20:29;;;;;;;10.03;3.30;;;;;;;;;;5055485;28;20480;-70
2023/12/27 03:22:55;;;;;;;7.30;4.10;;;;;;;;;;5051979;28;20894;-69
2023/12/27 03:25:21;;;;;;;13.40;4.17;;;;;;;;;;5049285;28;20552;-70
2023/12/27 03:27:48;;;;;;;24.97;5.93;;;;;;;;;;5053737;28;20449;-70
2023/12/27 03:30:14;;;;;;;8.60;4.90;;;;;;;;;;5049385;28;20528;-70
2023/12/27 03:32:41;;;;;;;9.80;5.10;;;;;;;;;;5056782;28;20441;-70
2023/12/27 03:35:09;;;;;;;6.07;3.70;;;;;;;;;;5054101;28;20525;-70
2023/12/27 03:37:35;;;;;;;8.87;4.10;;;;;;;;;;5051292;28;21334;-70
2023/12/27 03:40:02;;;;;;;5.80;3.83;;;;;;;;;;5050408;28;20500;-71
2023/12/27 03:42:29;;;;;;;6.23;4.27;;;;;;;;;;5051472;28;20483;-70
2023/12/27 03:44:55;;;;;;;4.13;3.70;;;;;;;;;;5043260;28;20445;-70
2023/12/27 03:47:22;;;;;;;8.13;4.90;;;;;;;;;;5057476;28;20461;-70
2023/12/27 03:49:49;;;;;;;8.90;4.70;;;;;;;;;;5053608;28;20492;-71
2023/12/27 03:52:16;;;;;;;10.03;5.23;;;;;;;;;;5054989;28;20500;-70
2023/12/27 03:54:43;;;;;;;8.93;4.70;;;;;;;;;;5055323;28;20476;-70
2023/12/27 03:57:10;;;;;;;8.17;4.27;;;;;;;;;;5050214;28;20524;-70
2023/12/27 03:59:37;;;;;;;12.60;5.90;;;;;;;;;;5052654;28;20519;-70
2023/12/27 04:02:03;;;;;;;8.13;6.00;;;;;;;;;;5050211;28;20515;-70
2023/12/27 04:04:29;;;;;;;9.97;4.57;;;;;;;;;;5051421;28;20555;-70
2023/12/27 04:06:56;;;;;;;7.73;4.90;;;;;;;;;;5071006;28;20491;-70
2023/12/27 04:09:24;;;;;;;11.70;4.60;;;;;;;;;;5078032;28;20478;-70
2023/12/27 04:11:50;;;;;;;9.83;4.83;;;;;;;;;;5075803;28;20519;-70
2023/12/27 04:14:17;;;;;;;8.00;4.67;;;;;;;;;;5073964;28;20472;-70
2023/12/27 04:16:43;;;;;;;7.27;5.47;;;;;;;;;;5072820;28;21127;-70
2023/12/27 04:19:10;;;;;;;7.00;4.47;;;;;;;;;;5075612;28;20457;-70
2023/12/27 04:21:37;;;;;;;10.47;5.33;;;;;;;;;;5075983;28;20491;-70
2023/12/27 04:24:03;;;;;;;7.80;5.20;;;;;;;;;;5068829;28;20512;-69
2023/12/27 04:26:31;;;;;;;10.23;4.67;;;;;;;;;;5066556;28;20515;-70
2023/12/27 04:28:58;;;;;;;5.93;5.23;;;;;;;;;;5070854;28;20524;-70
2023/12/27 04:31:24;;;;;;;9.30;6.43;;;;;;;;;;5068155;28;20490;-70
2023/12/27 04:33:50;;;;;;;8.87;4.70;;;;;;;;;;5076201;28;20844;-70
2023/12/27 04:36:17;;;;;;;5.13;3.70;;;;;;;;;;5072875;28;20511;-70
2023/12/27 04:38:43;;;;;;;9.37;5.73;;;;;;;;;;5073661;28;20440;-71
2023/12/27 04:41:09;;;;;;;10.57;5.50;;;;;;;;;;5068505;28;20478;-70
2023/12/27 04:43:37;;;;;;;9.10;7.10;;;;;;;;;;5074796;28;20480;-70
2023/12/27 04:46:06;;;;;;;9.30;5.93;;;;;;;;;;5074804;28;20507;-70
2023/12/27 04:48:32;;;;;;;12.57;5.60;;;;;;;;;;5068106;28;20448;-70
2023/12/27 04:50:59;;;;;;;6.40;5.57;;;;;;;;;;5066002;28;21024;-70
2023/12/27 04:53:25;;;;;;;6.00;4.90;;;;;;;;;;5071271;28;21217;-71
2023/12/27 04:55:52;;;;;;;7.70;6.50;;;;;;;;;;5073756;28;20460;-70
2023/12/27 04:58:18;;;;;;;9.63;6.67;;;;;;;;;;5066415;28;20483;-70
2023/12/27 05:00:46;;;;;;;11.50;6.00;;;;;;;;;;5075394;28;20503;-70
2023/12/27 05:03:12;;;;;;;8.00;6.37;;;;;;;;;;5068927;28;20457;-70
2023/12/27 05:05:39;;;;;;;8.53;6.13;;;;;;;;;;5072407;28;20602;-70
2023/12/27 05:08:06;;;;;;;6.67;5.70;;;;;;;;;;5069526;28;20484;-71
2023/12/27 05:10:32;;;;;;;12.60;6.03;;;;;;;;;;5070812;28;20888;-70
2023/12/27 05:12:58;;;;;;;13.50;5.90;;;;;;;;;;5076945;28;20468;-70
2023/12/27 05:15:25;;;;;;;9.57;6.23;;;;;;;;;;5073059;28;20444;-70
2023/12/27 05:17:52;;;;;;;10.87;6.00;;;;;;;;;;5076130;28;20476;-70
2023/12/27 05:20:19;;;;;;;8.87;6.47;;;;;;;;;;5070415;28;20456;-69
2023/12/27 05:22:45;;;;;;;8.17;6.30;;;;;;;;;;5068678;28;20900;-70
2023/12/27 05:25:12;;;;;;;8.40;5.50;;;;;;;;;;5064670;28;20476;-70
2023/12/27 05:27:38;;;;;;;11.60;7.00;;;;;;;;;;5076216;28;20450;-70
2023/12/27 05:30:08;;;;;;;12.07;6.90;;;;;;;;;;5071718;28;20484;-70
2023/12/27 05:32:34;;;;;;;6.90;5.60;;;;;;;;;;5074377;28;20445;-70
2023/12/27 05:35:03;;;;;;;9.63;5.30;;;;;;;;;;5069698;28;21003;-70
2023/12/27 05:37:29;;;;;;;16.93;6.33;;;;;;;;;;5064392;28;20516;-71
2023/12/27 05:39:55;;;;;;;11.80;5.83;;;;;;;;;;5066639;28;20444;-70
2023/12/27 05:42:23;;;;;;;10.90;6.60;;;;;;;;;;5074472;28;20459;-69
2023/12/27 05:44:49;;;;;;;6.90;5.60;;;;;;;;;;5074672;28;20899;-69
2023/12/27 05:47:15;;;;;;;13.40;5.90;;;;;;;;;;5069340;28;20555;-70
2023/12/27 05:49:42;;;;;;;6.17;5.57;;;;;;;;;;5072009;28;20459;-70
2023/12/27 05:52:10;;;;;;;8.80;6.03;;;;;;;;;;5074077;28;20448;-70
2023/12/27 05:54:37;;;;;;;9.77;6.30;;;;;;;;;;5063311;28;20476;-69
2023/12/27 05:57:03;;;;;;;6.30;5.73;;;;;;;;;;5074249;28;20516;-69
2023/12/27 05:59:30;;;;;;;13.07;5.90;;;;;;;;;;5073684;28;20527;-69
2023/12/27 06:01:56;;;;;;;6.83;5.50;;;;;;;;;;5066637;28;20539;-70
2023/12/27 06:04:23;;;;;;;9.13;6.17;;;;;;;;;;5070031;28;20475;-70
2023/12/27 06:06:49;;;;;;;12.17;5.60;;;;;;;;;;5073040;28;21043;-70
2023/12/27 06:09:17;;;;;;;8.90;6.17;;;;;;;;;;5075068;28;20454;-70
2023/12/27 06:11:43;;;;;;;11.90;5.83;;;;;;;;;;5074864;28;20444;-71
2023/12/27 06:14:10;;;;;;;10.33;6.43;;;;;;;;;;5067345;28;20464;-71
2023/12/27 06:16:36;;;;;;;6.53;4.80;;;;;;;;;;5064786;28;20520;-71
2023/12/27 06:19:03;;;;;;;8.57;5.20;;;;;;;;;;5071665;28;20520;-71
2023/12/27 06:21:29;;;;;;;6.30;5.20;;;;;;;;;;5071755;28;20479;-70
2023/12/27 06:23:56;;;;;;;9.17;5.90;;;;;;;;;;5069586;28;20452;-70
2023/12/27 06:26:23;;;;;;;10.53;5.73;;;;;;;;;;5061304;28;20495;-70
2023/12/27 06:28:50;;;;;;;9.10;6.20;;;;;;;;;;5074985;28;20478;-70
2023/12/27 06:31:16;;;;;;;8.43;5.50;;;;;;;;;;5070263;28;20459;-71
2023/12/27 06:33:42;;;;;;;6.83;5.77;;;;;;;;;;5073009;28;20484;-72
2023/12/27 06:36:09;;;;;;;13.50;5.60;;;;;;;;;;5074149;28;20860;-71
2023/12/27 06:38:35;;;;;;;9.60;5.70;;;;;;;;;;5072831;28;20537;-71
2023/12/27 06:41:02;;;;;;;8.67;6.83;;;;;;;;;;5075348;28;20479;-71
2023/12/27 06:43:31;;;;;;;7.70;6.03;;;;;;;;;;5072089;28;20454;-71
2023/12/27 06:45:57;;;;;;;16.50;6.03;;;;;;;;;;5077395;28;20507;-71
2023/12/27 06:48:24;;;;;;;13.97;5.83;;;;;;;;;;5078290;28;20482;-71
2023/12/27 06:50:52;;;;;;;6.60;5.70;;;;;;;;;;5073320;28;20569;-71
2023/12/27 06:53:18;;;;;;;8.20;6.40;;;;;;;;;;5075283;28;20939;-70
2023/12/27 06:55:45;;;;;;;10.47;7.40;;;;;;;;;;5076431;28;20527;-70
2023/12/27 06:58:11;;;;;;;10.50;6.53;;;;;;;;;;5076695;28;20460;-72
2023/12/27 07:00:39;;;;;;;11.83;6.33;;;;;;;;;;5077043;28;21072;-72
2023/12/27 07:03:05;;;;;;;9.90;6.87;;;;;;;;;;5076731;28;20479;-71
2023/12/27 07:05:32;;;;;;;11.97;7.97;;;;;;;;;;5077226;28;20606;-72
2023/12/27 07:07:58;;;;;;;12.97;7.33;;;;;;;;;;5075835;28;20552;-72
2023/12/27 07:10:26;;;;;;;9.87;6.63;;;;;;;;;;5072489;28;20432;-72
2023/12/27 07:12:52;;;;;;;10.23;6.73;;;;;;;;;;5077119;28;20483;-71
2023/12/27 07:15:18;;;;;;;10.23;6.97;;;;;;;;;;5071409;28;20484;-72
2023/12/27 07:17:46;;;;;;;7.80;6.17;;;;;;;;;;5074943;28;20501;-71
2023/12/27 07:20:13;;;;;;;9.00;6.00;;;;;;;;;;5075429;28;20567;-70
2023/12/27 07:22:39;;;;;;;11.43;6.13;;;;;;;;;;5076991;28;20511;-71
2023/12/27 07:25:06;;;;;;;11.60;7.20;;;;;;;;;;5075579;28;20540;-71
2023/12/27 07:27:32;;;;;;;9.17;6.00;;;;;;;;;;5074822;28;21353;-71
2023/12/27 07:29:58;;;;;;;11.83;6.97;;;;;;;;;;5075365;28;20516;-72
2023/12/27 07:32:25;;;;;;;9.87;6.30;;;;;;;;;;5078653;28;20570;-70
2023/12/27 07:34:57;;;;;;;13.57;7.60;;;;;;;;;;5074523;28;20441;-71
2023/12/27 07:37:23;;;;;;;9.60;7.10;;;;;;;;;;5073854;28;20509;-71
2023/12/27 07:39:50;;;;;;;12.73;10.33;;;;;;;;;;5077674;28;20455;-71
2023/12/27 07:42:17;;;;;;;12.67;9.63;;;;;;;;;;5059261;28;20456;-71
2023/12/27 07:44:43;;;;;;;11.20;8.10;;;;;;;;;;5074938;28;20447;-70
2023/12/27 07:47:10;;;;;;;20.67;10.27;;;;;;;;;;5073374;28;20567;-70
2023/12/27 07:49:36;;;;;;;10.73;7.33;;;;;;;;;;5070895;28;20483;-70
2023/12/27 07:52:04;;;;;;;9.03;5.93;;;;;;;;;;5071374;28;20460;-70
2023/12/27 07:54:31;;;;;;;9.50;5.93;;;;;;;;;;5077178;28;20535;-70
2023/12/27 07:56:57;;;;;;;10.97;6.53;;;;;;;;;;5075852;28;20478;-70
2023/12/27 07:59:24;;;;;;;7.97;6.17;;;;;;;;;;5076506;28;20543;-69
2023/12/27 08:01:51;;;;;;;10.60;7.60;;;;;;;;;;5071763;28;20468;-70
2023/12/27 08:04:17;;;;;;;13.77;7.00;;;;;;;;;;5071350;28;20972;-70
2023/12/27 08:06:45;;;;;;;12.03;8.80;;;;;;;;;;5075869;28;20563;-71
2023/12/27 08:09:13;;;;;;;12.87;8.37;;;;;;;;;;5072767;28;20474;-70
2023/12/27 08:11:39;;;;;;;14.70;8.37;;;;;;;;;;5075240;28;20514;-70
2023/12/27 08:14:06;;;;;;;12.60;8.27;;;;;;;;;;5077168;28;20475;-70
2023/12/27 08:16:32;;;;;;;13.70;8.30;;;;;;;;;;5076289;28;20543;-70
2023/12/27 08:18:58;;;;;;;18.70;8.60;;;;;;;;;;5076127;28;20552;-70
2023/12/27 08:21:25;;;;;;;17.03;9.20;;;;;;;;;;5073759;28;20480;-71
2023/12/27 08:23:53;;;;;;;21.10;9.37;;;;;;;;;;5071510;28;20466;-71
2023/12/27 08:26:20;;;;;;;11.00;7.70;;;;;;;;;;5073739;28;20464;-71
2023/12/27 08:28:47;;;;;;;15.27;8.70;;;;;;;;;;5074227;28;20511;-71
2023/12/27 08:31:13;;;;;;;20.30;9.20;;;;;;;;;;5069323;28;20496;-73
2023/12/27 08:33:40;;;;;;;14.77;9.67;;;;;;;;;;5071513;28;20483;-71
2023/12/27 08:36:06;;;;;;;18.60;9.67;;;;;;;;;;5068905;28;20495;-72
2023/12/27 08:38:33;;;;;;;20.87;10.37;;;;;;;;;;5066928;28;20503;-71
2023/12/27 08:40:59;;;;;;;18.93;10.20;;;;;;;;;;5072901;28;20516;-73
2023/12/27 08:43:29;;;;;;;16.03;10.10;;;;;;;;;;5072616;28;20508;-73
2023/12/27 08:45:55;;;;;;;13.53;8.70;;;;;;;;;;5067247;28;20999;-72
2023/12/27 08:48:21;;;;;;;15.40;9.00;;;;;;;;;;5066164;28;20540;-72
2023/12/27 08:50:48;;;;;;;15.27;10.00;;;;;;;;;;5067132;28;20487;-72
2023/12/27 08:53:14;;;;;;;20.60;10.20;;;;;;;;;;5075340;28;20224;-71
2023/12/27 08:55:41;;;;;;;17.50;8.70;;;;;;;;;;5069641;28;20552;-71
2023/12/27 08:58:09;;;;;;;14.57;9.27;;;;;;;;;;5072462;28;20531;-73
2023/12/27 09:00:37;;;;;;;12.53;7.63;;;;;;;;;;5067195;28;20453;-71
2023/12/27 09:03:04;;;;;;;14.23;8.37;;;;;;;;;;5072087;28;20558;-71
2023/12/27 09:05:31;;;;;;;19.60;9.27;;;;;;;;;;5069181;28;20530;-72
2023/12/27 09:07:57;;;;;;;18.47;10.00;;;;;;;;;;5074140;28;20487;-72
2023/12/27 09:10:24;;;;;;;12.60;8.30;;;;;;;;;;5075218;28;20527;-71
2023/12/27 09:12:50;;;;;;;15.20;8.97;;;;;;;;;;5076749;28;21068;-71
2023/12/27 09:15:17;;;;;;;13.57;8.63;;;;;;;;;;5073770;28;20482;-71
2023/12/27 09:17:45;;;;;;;18.27;9.70;;;;;;;;;;5077342;28;20539;-71
2023/12/27 09:20:11;;;;;;;16.23;9.73;;;;;;;;;;5073398;28;20507;-72
2023/12/27 09:22:38;;;;;;;12.57;8.50;;;;;;;;;;5075774;28;20466;-71
2023/12/27 09:25:05;;;;;;;18.77;10.10;;;;;;;;;;5076593;28;20465;-71
2023/12/27 09:27:32;;;;;;;18.73;9.33;;;;;;;;;;5068676;28;20480;-71
2023/12/27 09:29:58;;;;;;;16.33;8.87;;;;;;;;;;5064219;28;20480;-72
2023/12/27 09:32:24;;;;;;;23.13;8.90;;;;;;;;;;5067439;28;20498;-72
2023/12/27 09:34:52;;;;;;;14.23;9.50;;;;;;;;;;5070793;28;20479;-71
2023/12/27 09:37:19;;;;;;;15.20;9.23;;;;;;;;;;5068839;28;20528;-72
2023/12/27 09:39:45;;;;;;;12.50;8.83;;;;;;;;;;5073877;28;20551;-72
2023/12/27 09:42:12;;;;;;;14.03;8.57;;;;;;;;;;5071903;28;20471;-72
2023/12/27 09:44:39;;;;;;;13.43;7.67;;;;;;;;;;5068777;28;20518;-70
2023/12/27 09:47:09;;;;;;;17.50;9.20;;;;;;;;;;5074840;28;20879;-70
2023/12/27 09:49:36;;;;;;;13.60;8.33;;;;;;;;;;5072597;28;20456;-70
2023/12/27 09:52:05;;;;;;;17.60;8.63;;;;;;;;;;5075520;28;20543;-70
2023/12/27 09:54:31;;;;;;;15.30;9.17;;;;;;;;;;5072622;28;20527;-69
2023/12/27 09:56:58;;;;;;;17.13;8.80;;;;;;;;;;5068938;28;21100;-70
2023/12/27 09:59:28;;;;;;;24.13;10.20;;;;;;;;;;5067126;28;21098;-70
2023/12/27 10:01:59;;;;;;;17.50;9.90;;;;;;;;;;5071108;28;20456;-70
2023/12/27 10:04:27;;;;;;;21.30;9.80;;;;;;;;;;5065240;28;20479;-70
2023/12/27 10:06:54;;;;;;;13.07;9.43;;;;;;;;;;5048950;28;20612;-70
2023/12/27 10:09:22;;;;;;;14.90;9.80;;;;;;;;;;5049709;28;20486;-69
2023/12/27 10:11:50;;;;;;;15.63;9.00;;;;;;;;;;5049354;28;20500;-69
2023/12/27 10:14:17;;;;;;;13.27;8.13;;;;;;;;;;5048551;28;20445;-69
2023/12/27 10:16:43;;;;;;;14.13;8.33;;;;;;;;;;5057130;28;20468;-70
2023/12/27 10:19:29;;;;;;;14.50;7.70;;;;;;;;;;5056333;28;20484;-69
2023/12/27 10:21:56;;;;;;;13.13;7.93;;;;;;;;;;5057009;28;21065;-69
2023/12/27 10:24:24;;;;;;;14.17;9.17;;;;;;;;;;5056536;28;20437;-73
2023/12/27 10:26:50;;;;;;;11.90;8.00;;;;;;;;;;5044570;28;20492;-69
2023/12/27 10:29:19;;;;;;;12.90;7.27;;;;;;;;;;5051777;28;21116;-73
2023/12/27 10:31:46;;;;;;;18.83;8.27;;;;;;;;;;5051307;28;21024;-73
2023/12/27 10:34:12;;;;;;;19.17;7.50;;;;;;;;;;5054924;28;20453;-74
2023/12/27 10:36:42;;;;;;;16.80;8.80;;;;;;;;;;5052884;28;20477;-74
2023/12/27 10:39:09;;;;;;;13.20;7.30;;;;;;;;;;5059351;28;20994;-74
2023/12/27 10:41:38;;;;;;;24.27;8.07;;;;;;;;;;5049129;28;20453;-74
2023/12/27 10:44:05;;;;;;;12.20;7.70;;;;;;;;;;5051227;28;20917;-74
2023/12/27 10:46:31;;;;;;;11.90;6.60;;;;;;;;;;5052065;28;20529;-74
2023/12/27 10:49:01;;;;;;;13.40;8.10;;;;;;;;;;5051978;28;20480;-74
2023/12/27 10:51:29;;;;;;;11.00;7.50;;;;;;;;;;5059167;28;20476;-74
2023/12/27 10:53:58;;;;;;;16.97;8.70;;;;;;;;;;5059293;28;20496;-71
2023/12/27 10:56:26;;;;;;;14.67;7.90;;;;;;;;;;5058891;28;20448;-71
2023/12/27 10:58:54;;;;;;;15.90;8.60;;;;;;;;;;5059296;28;20542;-72
2023/12/27 11:01:21;;;;;;;17.70;8.70;;;;;;;;;;5058312;28;20453;-71
2023/12/27 11:03:48;;;;;;;12.00;8.23;;;;;;;;;;5052139;28;21013;-72
2023/12/27 11:06:16;;;;;;;12.00;8.50;;;;;;;;;;5065605;28;20530;-72
2023/12/27 11:08:44;;;;;;;18.57;9.20;;;;;;;;;;5068994;28;20539;-72
2023/12/27 11:11:13;;;;;;;16.93;9.37;;;;;;;;;;5078163;28;20535;-72
2023/12/27 11:13:39;;;;;;;18.30;9.07;;;;;;;;;;5064744;28;20475;-71
2023/12/27 11:16:07;;;;;;;17.20;9.47;;;;;;;;;;5070599;28;20479;-73
2023/12/27 11:18:36;;;;;;;20.03;8.83;;;;;;;;;;5075304;28;20456;-72
2023/12/27 11:21:02;;;;;;;20.50;9.20;;;;;;;;;;5076015;28;20524;-72
2023/12/27 11:23:29;;;;;;;13.63;9.27;;;;;;;;;;5070586;28;20491;-72
2023/12/27 11:25:56;;;;;;;14.73;9.00;;;;;;;;;;5068635;28;20463;-72
2023/12/27 11:28:23;;;;;;;18.60;10.00;;;;;;;;;;5069117;28;20545;-72
2023/12/27 11:30:49;;;;;;;20.83;10.33;;;;;;;;;;5074014;28;20456;-73
2023/12/27 11:33:21;;;;;;;14.73;8.80;;;;;;;;;;5070992;28;20485;-72
2023/12/27 11:35:47;;;;;;;14.40;8.97;;;;;;;;;;5078397;28;20561;-72
2023/12/27 11:38:14;;;;;;;17.93;9.87;;;;;;;;;;5075998;28;20475;-72
2023/12/27 11:40:43;;;;;;;18.97;10.30;;;;;;;;;;5078529;28;20644;-73
2023/12/27 11:43:09;;;;;;;19.30;10.40;;;;;;;;;;5076932;28;20456;-73
2023/12/27 11:45:50;;;;;;;16.90;9.13;;;;;;;;;;5062646;28;20547;-72
2023/12/27 11:48:17;;;;;;;21.67;9.63;;;;;;;;;;5071855;28;20981;-74
2023/12/27 11:50:45;;;;;;;22.07;10.17;;;;;;;;;;5075656;28;20447;-73
2023/12/27 11:53:12;;;;;;;21.33;9.43;;;;;;;;;;5066879;28;20508;-73
2023/12/27 11:55:38;;;;;;;14.83;9.20;;;;;;;;;;5075990;28;20516;-73
2023/12/27 11:58:05;;;;;;;14.27;8.60;;;;;;;;;;5072981;28;20480;-73
2023/12/27 12:00:31;;;;;;;15.20;8.10;;;;;;;;;;5071666;28;20512;-73
2023/12/27 12:02:59;;;;;;;12.60;8.93;;;;;;;;;;5073524;28;20587;-74
2023/12/27 12:05:41;;;;;;;16.43;8.17;;;;;;;;;;5062349;28;20588;-73
2023/12/27 12:08:12;;;;;;;18.30;9.93;;;;;;;;;;5053393;28;20520;-72
2023/12/27 12:10:39;;;;;;;15.87;9.07;;;;;;;;;;5057464;28;21028;-73
2023/12/27 12:13:05;;;;;;;15.13;9.03;;;;;;;;;;5051837;28;20513;-73
2023/12/27 12:15:31;;;;;;;17.70;9.03;;;;;;;;;;5049502;28;20543;-72
2023/12/27 12:17:59;;;;;;;14.03;8.00;;;;;;;;;;5056965;28;20708;-74
2023/12/27 12:20:27;;;;;;;13.23;9.10;;;;;;;;;;5056082;28;20477;-73
2023/12/27 12:22:54;;;;;;;16.13;8.60;;;;;;;;;;5052525;28;20464;-73
2023/12/27 12:25:25;;;;;;;17.40;8.87;;;;;;;;;;5057237;28;20483;-73
2023/12/27 12:27:52;;;;;;;17.90;8.80;;;;;;;;;;5057680;28;20495;-73
2023/12/27 12:30:20;;;;;;;17.30;8.33;;;;;;;;;;5053593;28;20441;-73
2023/12/27 12:32:47;;;;;;;12.73;9.30;;;;;;;;;;5053069;28;20455;-73
2023/12/27 12:35:15;;;;;;;13.70;8.10;;;;;;;;;;5056402;28;20477;-73
2023/12/27 12:37:41;;;;;;;16.37;9.00;;;;;;;;;;5050971;28;20454;-74
2023/12/27 12:40:08;;;;;;;16.07;9.40;;;;;;;;;;5055728;28;20455;-74
2023/12/27 12:42:36;;;;;;;15.63;9.47;;;;;;;;;;5050160;28;20778;-73
2023/12/27 12:45:04;;;;;;;14.27;8.90;;;;;;;;;;5047152;28;20529;-79
2023/12/27 12:47:31;;;;;;;13.63;8.87;;;;;;;;;;5047985;28;20462;-80
2023/12/27 12:49:58;;;;;;;16.20;9.53;;;;;;;;;;5052278;28;20524;-81
2023/12/27 12:52:25;;;;;;;17.50;8.83;;;;;;;;;;5053522;28;20482;-82
2023/12/27 12:54:51;;;;;;;11.73;7.43;;;;;;;;;;5055701;28;20535;-81
2023/12/27 12:57:18;;;;;;;14.33;7.90;;;;;;;;;;5042878;28;20532;-81
2023/12/27 12:59:45;;;;;;;9.30;6.43;;;;;;;;;;5047495;28;20989;-79
2023/12/27 13:02:12;;;;;;;14.90;8.10;;;;;;;;;;5052923;28;20528;-80
2023/12/27 13:04:39;;;;;;;18.97;7.53;;;;;;;;;;5043337;28;20556;-80
2023/12/27 13:07:07;;;;;;;11.60;7.30;;;;;;;;;;5054442;28;20491;-82
2023/12/27 13:09:48;;;;;;;11.60;7.40;;;;;;;;;;5051622;28;20468;-82
2023/12/27 13:12:15;;;;;;;10.33;6.73;;;;;;;;;;5054328;28;20584;-77
2023/12/27 13:14:42;;;;;;;9.57;6.93;;;;;;;;;;5055612;28;20510;-78
2023/12/27 13:17:10;;;;;;;11.77;6.90;;;;;;;;;;5051844;28;20456;-78
2023/12/27 13:19:37;;;;;;;11.10;7.00;;;;;;;;;;5052802;28;20460;-77
2023/12/27 13:22:03;;;;;;;10.80;6.80;;;;;;;;;;5055262;28;20518;-73
2023/12/27 13:24:31;;;;;;;12.00;7.10;;;;;;;;;;5054793;28;20474;-73
2023/12/27 13:26:57;;;;;;;9.23;7.20;;;;;;;;;;5050926;28;20491;-74
2023/12/27 13:29:24;;;;;;;16.87;15.20;;;;;;;;;;5055068;28;20528;-74
2023/12/27 13:31:50;;;;;;;11.10;7.30;;;;;;;;;;5054779;28;20453;-74
2023/12/27 13:34:18;;;;;;;10.53;6.83;;;;;;;;;;5047683;28;20520;-73
2023/12/27 13:36:45;;;;;;;36.13;22.30;;;;;;;;;;5041262;28;20468;-74
2023/12/27 13:39:13;;;;;;;24.90;14.40;;;;;;;;;;5044904;28;20454;-74
2023/12/27 13:41:39;;;;;;;16.60;7.53;;;;;;;;;;5054324;28;20485;-74
2023/12/27 13:44:06;;;;;;;11.50;8.87;;;;;;;;;;5053094;28;20580;-80
2023/12/27 13:46:33;;;;;;;11.27;6.73;;;;;;;;;;5052506;28;20491;-78
2023/12/27 13:49:00;;;;;;;12.90;8.30;;;;;;;;;;5051882;28;20826;-74
2023/12/27 13:51:27;;;;;;;12.37;10.40;;;;;;;;;;5056165;28;20548;-74
2023/12/27 13:53:54;;;;;;;9.53;6.70;;;;;;;;;;5059285;28;20539;-75
2023/12/27 13:56:20;;;;;;;10.07;5.93;;;;;;;;;;5058687;28;21030;-78
2023/12/27 13:58:47;;;;;;;10.60;6.50;;;;;;;;;;5053629;28;20479;-76
2023/12/27 14:01:15;;;;;;;8.30;5.70;;;;;;;;;;5058607;28;20520;-74
2023/12/27 14:03:41;;;;;;;7.10;5.30;;;;;;;;;;5059658;28;20457;-78
2023/12/27 14:06:11;;;;;;;12.00;6.60;;;;;;;;;;5054315;28;20476;-73
2023/12/27 14:08:38;;;;;;;11.23;7.80;;;;;;;;;;5051503;28;21085;-74
2023/12/27 14:11:05;;;;;;;11.83;8.67;;;;;;;;;;5055899;28;20503;-72
2023/12/27 14:13:32;;;;;;;9.20;6.80;;;;;;;;;;5050188;28;20519;-74
2023/12/27 14:15:59;;;;;;;8.60;6.20;;;;;;;;;;5056699;28;20484;-77
2023/12/27 14:18:26;;;;;;;12.03;6.33;;;;;;;;;;5057771;28;21091;-77
2023/12/27 14:20:52;;;;;;;12.03;7.90;;;;;;;;;;5057183;28;20526;-76
2023/12/27 14:23:19;;;;;;;10.73;6.53;;;;;;;;;;5045094;28;20512;-74
2023/12/27 14:25:47;;;;;;;10.77;6.50;;;;;;;;;;5049921;28;20454;-77
2023/12/27 14:28:14;;;;;;;10.83;7.80;;;;;;;;;;5052684;28;20475;-78
2023/12/27 14:30:41;;;;;;;10.27;7.60;;;;;;;;;;5053513;28;20533;-76
2023/12/27 14:33:07;;;;;;;13.33;7.60;;;;;;;;;;5058385;28;20522;-75